Time;durP1;ratioP1;P1;durP2;ratioP2;P2;SDS_P1;SDS_P2;PMS_P1;PMS_P2;Temp;Humidity;BMP_temperature;BMP_pressure;BME280_temperature;BME280_humidity;BME280_pressure;Samples;Min_cycle;Max_cycle;Signal;HPM_P1;HPM_P2
2020/12/18 00:01:34;;;;;;;;;;;28.20;77.70;;;;;;4887152;29;19912;-89
2020/12/18 00:04:00;;;;;;;;;;;27.70;78.50;;;;;;4862538;29;20018;-83
2020/12/18 00:06:37;;;;;;;;;;;27.40;81.50;;;;;;4879564;29;20014;-86
2020/12/18 00:09:05;;;;;;;;;;;26.80;82.80;;;;;;4879989;29;19931;-86
2020/12/18 00:11:32;;;;;;;;;;;26.30;86.60;;;;;;4861837;29;19915;-85
2020/12/18 00:13:58;;;;;;;;;;;25.90;89.10;;;;;;4880085;29;20274;-86
2020/12/18 00:16:26;;;;;;;;;;;25.70;90.30;;;;;;4890980;29;19911;-83
2020/12/18 00:18:53;;;;;;;;;;;25.70;90.20;;;;;;4884087;29;20362;-85
2020/12/18 00:21:20;;;;;;;;;;;25.60;90.20;;;;;;4880789;29;19908;-83
2020/12/18 00:23:47;;;;;;;;;;;25.60;90.80;;;;;;4893459;29;19943;-82
2020/12/18 00:26:14;;;;;;;;;;;25.60;90.60;;;;;;4882454;29;19932;-85
2020/12/18 00:28:41;;;;;;;;;;;25.60;90.40;;;;;;4861866;29;19912;-88
2020/12/18 00:31:08;;;;;;;;;;;25.70;89.60;;;;;;4878493;29;20308;-83
2020/12/18 00:33:38;;;;;;;;;;;25.70;90.00;;;;;;4878617;29;20345;-89
2020/12/18 00:36:05;;;;;;;;;;;25.80;89.70;;;;;;4888433;29;20392;-81
2020/12/18 00:38:32;;;;;;;;;;;25.70;90.30;;;;;;4888846;29;19911;-84
2020/12/18 00:40:58;;;;;;;;;;;25.70;90.10;;;;;;4883085;29;19955;-86
2020/12/18 00:43:25;;;;;;;;;;;25.70;90.10;;;;;;4882792;29;19908;-85
2020/12/18 00:45:52;;;;;;;;;;;25.70;90.10;;;;;;4882669;29;19920;-87
2020/12/18 00:48:18;;;;;;;;;;;25.70;90.20;;;;;;4899231;29;19911;-86
2020/12/18 00:50:46;;;;;;;;;;;25.60;90.60;;;;;;4900376;29;19915;-87
2020/12/18 00:53:13;;;;;;;;;;;25.60;90.80;;;;;;4884274;29;19941;-86
2020/12/18 00:55:39;;;;;;;;;;;25.70;90.80;;;;;;4873417;29;19908;-85
2020/12/18 00:58:06;;;;;;;;;;;25.80;91.10;;;;;;4867504;29;20034;-85
2020/12/18 01:00:33;;;;;;;;;;;25.80;90.10;;;;;;4888849;29;19911;-83
2020/12/18 01:02:59;;;;;;;;;;;25.90;88.50;;;;;;4909574;29;19922;-84
2020/12/18 01:05:26;;;;;;;;;;;26.00;88.40;;;;;;4865959;29;20282;-84
2020/12/18 01:07:53;;;;;;;;;;;26.00;87.50;;;;;;4882051;29;19957;-85
2020/12/18 01:10:20;;;;;;;;;;;26.00;86.20;;;;;;4899816;29;19919;-84
2020/12/18 01:12:50;;;;;;;;;;;26.00;84.20;;;;;;4882634;29;19958;-84
2020/12/18 01:15:17;;;;;;;;;;;26.20;83.20;;;;;;4880437;29;19923;-84
2020/12/18 01:17:44;;;;;;;;;;;26.20;82.30;;;;;;4881580;29;19918;-85
2020/12/18 01:20:10;;;;;;;;;;;26.30;82.20;;;;;;4880662;29;19915;-85
2020/12/18 01:22:37;;;;;;;;;;;26.40;81.80;;;;;;4899151;29;19911;-84
2020/12/18 01:25:05;;;;;;;;;;;26.30;82.50;;;;;;4882838;29;19926;-85
2020/12/18 01:27:32;;;;;;;;;;;26.40;83.00;;;;;;4882902;29;20706;-85
2020/12/18 01:29:58;;;;;;;;;;;26.40;82.50;;;;;;4899636;29;19911;-84
2020/12/18 01:32:25;;;;;;;;;;;26.50;80.70;;;;;;4882683;29;20359;-84
2020/12/18 01:34:52;;;;;;;;;;;26.50;82.00;;;;;;4881409;29;20041;-84
2020/12/18 01:37:19;;;;;;;;;;;26.50;80.00;;;;;;4875053;29;19923;-84
2020/12/18 01:39:46;;;;;;;;;;;26.60;79.60;;;;;;4865200;29;19911;-84
2020/12/18 01:42:13;;;;;;;;;;;26.70;76.40;;;;;;4865450;29;20367;-84
2020/12/18 01:44:39;;;;;;;;;;;26.80;76.90;;;;;;4866202;29;19916;-85
2020/12/18 01:47:17;;;;;;;;;;;26.90;76.10;;;;;;4878979;29;19914;-84
2020/12/18 01:49:44;;;;;;;;;;;27.00;77.70;;;;;;4884701;29;19959;-84
2020/12/18 01:52:10;;;;;;;;;;;27.20;76.40;;;;;;4886031;29;20284;-85
2020/12/18 01:54:37;;;;;;;;;;;27.40;74.20;;;;;;4888101;29;19912;-85
2020/12/18 01:57:04;;;;;;;;;;;27.60;73.00;;;;;;4883218;29;19947;-86
2020/12/18 01:59:31;;;;;;;;;;;27.70;72.60;;;;;;4888014;29;19916;-87
2020/12/18 02:01:58;;;;;;;;;;;27.80;72.40;;;;;;4884398;29;19932;-87
2020/12/18 02:04:25;;;;;;;;;;;27.90;73.00;;;;;;4866243;29;19930;-86
2020/12/18 02:06:54;;;;;;;;;;;28.00;72.70;;;;;;4869229;29;19915;-87
2020/12/18 02:09:21;;;;;;;;;;;28.10;69.60;;;;;;4883633;29;20433;-88
2020/12/18 02:11:49;;;;;;;;;;;28.30;71.90;;;;;;4882580;29;19994;-87
2020/12/18 02:14:16;;;;;;;;;;;28.40;73.60;;;;;;4867618;29;19911;-87
2020/12/18 02:16:43;;;;;;;;;;;28.50;73.60;;;;;;4877782;29;19923;-88
2020/12/18 02:19:10;;;;;;;;;;;28.50;73.20;;;;;;4891027;29;19918;-87
2020/12/18 02:21:37;;;;;;;;;;;28.60;74.10;;;;;;4895800;29;19968;-86
2020/12/18 02:24:03;;;;;;;;;;;28.60;73.60;;;;;;4883929;29;20002;-87
2020/12/18 02:26:30;;;;;;;;;;;28.70;72.80;;;;;;4900334;29;19951;-86
2020/12/18 02:28:57;;;;;;;;;;;28.70;72.10;;;;;;4883509;29;19911;-88
2020/12/18 02:31:24;;;;;;;;;;;28.70;71.50;;;;;;4899834;29;19911;-88
2020/12/18 02:33:51;;;;;;;;;;;28.80;71.00;;;;;;4878549;29;19915;-88
2020/12/18 02:36:25;;;;;;;;;;;28.80;69.70;;;;;;4889713;29;19907;-88
2020/12/18 02:38:51;;;;;;;;;;;28.90;70.60;;;;;;4873242;29;19912;-88
2020/12/18 02:41:18;;;;;;;;;;;28.90;71.20;;;;;;4865475;29;19930;-88
2020/12/18 02:43:45;;;;;;;;;;;29.00;70.60;;;;;;4896915;29;19987;-87
2020/12/18 02:46:12;;;;;;;;;;;29.10;68.70;;;;;;4893979;29;19919;-88
2020/12/18 02:48:38;;;;;;;;;;;29.20;66.40;;;;;;4896540;29;20281;-89
2020/12/18 02:51:05;;;;;;;;;;;29.20;66.50;;;;;;4896616;29;20516;-87
2020/12/18 02:53:32;;;;;;;;;;;29.20;65.20;;;;;;4896423;29;19919;-87
2020/12/18 02:55:58;;;;;;;;;;;29.20;66.20;;;;;;4897509;29;19907;-87
2020/12/18 02:58:25;;;;;;;;;;;29.30;66.10;;;;;;4870304;29;20377;-86
2020/12/18 03:00:52;;;;;;;;;;;29.40;65.10;;;;;;4894313;29;19947;-85
2020/12/18 03:03:18;;;;;;;;;;;29.40;66.60;;;;;;4880460;29;19924;-86
2020/12/18 03:05:45;;;;;;;;;;;29.50;64.60;;;;;;4879645;29;19924;-86
2020/12/18 03:08:12;;;;;;;;;;;29.70;63.00;;;;;;4861119;29;19960;-86
2020/12/18 03:10:39;;;;;;;;;;;29.80;62.20;;;;;;4861889;29;20001;-85
2020/12/18 03:13:08;;;;;;;;;;;29.90;61.30;;;;;;4880293;29;19963;-86
2020/12/18 03:15:35;;;;;;;;;;;29.90;62.30;;;;;;4894328;29;19915;-86
2020/12/18 03:18:02;;;;;;;;;;;29.80;62.00;;;;;;4887060;29;19912;-86
2020/12/18 03:20:28;;;;;;;;;;;29.80;60.90;;;;;;4883442;29;19963;-85
2020/12/18 03:22:55;;;;;;;;;;;29.80;59.50;;;;;;4859976;29;19918;-86
2020/12/18 03:25:22;;;;;;;;;;;29.80;60.10;;;;;;4885195;29;19952;-85
2020/12/18 03:27:48;;;;;;;;;;;29.80;59.30;;;;;;4900092;29;19971;-86
2020/12/18 03:30:15;;;;;;;;;;;29.70;59.50;;;;;;4893521;29;20002;-85
2020/12/18 03:32:42;;;;;;;;;;;29.70;60.80;;;;;;4880946;29;19915;-85
2020/12/18 03:35:09;;;;;;;;;;;29.70;61.00;;;;;;4878709;29;19915;-86
2020/12/18 03:37:35;;;;;;;;;;;29.60;60.20;;;;;;4879916;29;20282;-85
2020/12/18 03:40:02;;;;;;;;;;;29.50;60.90;;;;;;4889139;29;19916;-86
2020/12/18 03:42:29;;;;;;;;;;;29.40;62.00;;;;;;4877358;29;19913;-85
2020/12/18 03:44:56;;;;;;;;;;;29.40;61.90;;;;;;4881921;29;19915;-86
2020/12/18 03:47:23;;;;;;;;;;;29.40;61.90;;;;;;4880403;29;19996;-85
2020/12/18 03:49:49;;;;;;;;;;;29.40;62.50;;;;;;4849500;29;19942;-86
2020/12/18 03:52:16;;;;;;;;;;;29.40;62.70;;;;;;4873441;29;19914;-86
2020/12/18 03:54:43;;;;;;;;;;;29.30;63.60;;;;;;4872960;29;20010;-86
2020/12/18 03:57:09;;;;;;;;;;;29.30;63.60;;;;;;4880503;29;19922;-86
2020/12/18 03:59:36;;;;;;;;;;;29.20;64.40;;;;;;4898376;29;19912;-84
2020/12/18 04:02:03;;;;;;;;;;;29.10;64.60;;;;;;4873600;29;19971;-86
2020/12/18 04:04:30;;;;;;;;;;;29.10;65.70;;;;;;4871526;29;19926;-90
2020/12/18 04:06:56;;;;;;;;;;;29.10;65.20;;;;;;4860925;29;20300;-80
2020/12/18 04:09:23;;;;;;;;;;;29.10;65.80;;;;;;4868181;29;19970;-84
2020/12/18 04:11:50;;;;;;;;;;;29.00;65.60;;;;;;4877378;29;19915;-84
2020/12/18 04:14:17;;;;;;;;;;;29.00;66.20;;;;;;4882100;29;19915;-81
2020/12/18 04:16:43;;;;;;;;;;;29.10;65.60;;;;;;4884085;29;19959;-85
2020/12/18 04:19:10;;;;;;;;;;;29.10;66.20;;;;;;4876950;29;20347;-85
2020/12/18 04:21:37;;;;;;;;;;;29.10;66.30;;;;;;4877987;29;19916;-84
2020/12/18 04:24:04;;;;;;;;;;;29.20;66.30;;;;;;4880198;29;19971;-86
2020/12/18 04:26:30;;;;;;;;;;;29.10;66.70;;;;;;4879018;29;19931;-82
2020/12/18 04:28:57;;;;;;;;;;;28.90;67.20;;;;;;4878971;29;19908;-89
2020/12/18 04:31:25;;;;;;;;;;;28.70;68.10;;;;;;4867886;29;20446;-89
2020/12/18 04:33:51;;;;;;;;;;;28.70;68.40;;;;;;4871055;29;19911;-85
2020/12/18 04:36:18;;;;;;;;;;;28.70;68.60;;;;;;4870531;29;19911;-84
2020/12/18 04:38:45;;;;;;;;;;;28.60;69.30;;;;;;4879327;29;20077;-85
2020/12/18 04:41:12;;;;;;;;;;;28.50;70.30;;;;;;4880822;29;19911;-85
2020/12/18 04:43:39;;;;;;;;;;;28.40;70.60;;;;;;4870245;29;19915;-86
2020/12/18 04:46:07;;;;;;;;;;;28.30;70.30;;;;;;4878476;29;19916;-87
2020/12/18 04:48:34;;;;;;;;;;;28.20;70.80;;;;;;4859136;29;19912;-84
2020/12/18 04:51:02;;;;;;;;;;;28.20;71.10;;;;;;4859327;29;19916;-85
2020/12/18 04:53:30;;;;;;;;;;;28.10;71.10;;;;;;4874197;29;19919;-83
2020/12/18 04:56:03;;;;;;;;;;;28.00;72.10;;;;;;4861408;29;19908;-82
2020/12/18 04:58:30;;;;;;;;;;;28.10;72.30;;;;;;4872217;29;19947;-82
2020/12/18 05:01:00;;;;;;;;;;;28.00;72.70;;;;;;4874840;29;19912;-81
2020/12/18 05:03:28;;;;;;;;;;;28.00;73.20;;;;;;4867413;29;19915;-85
2020/12/18 05:05:55;;;;;;;;;;;27.90;78.40;;;;;;4877484;29;19972;-86
2020/12/18 05:08:22;;;;;;;;;;;27.40;81.00;;;;;;4878442;29;20385;-85
2020/12/18 05:10:49;;;;;;;;;;;27.10;83.10;;;;;;4877883;29;19912;-84
2020/12/18 05:13:15;;;;;;;;;;;26.80;86.20;;;;;;4864687;29;20316;-83
2020/12/18 05:15:42;;;;;;;;;;;26.50;86.60;;;;;;4864794;29;19912;-83
2020/12/18 05:18:09;;;;;;;;;;;26.20;88.60;;;;;;4865277;29;19919;-84
2020/12/18 05:20:36;;;;;;;;;;;26.10;89.50;;;;;;4865297;29;19911;-83
2020/12/18 05:23:08;;;;;;;;;;;26.10;89.60;;;;;;4879224;29;19966;-82
2020/12/18 05:25:35;;;;;;;;;;;26.00;90.40;;;;;;4868390;29;19948;-84
2020/12/18 05:28:03;;;;;;;;;;;25.90;91.40;;;;;;4882158;29;19934;-85
2020/12/18 05:30:29;;;;;;;;;;;25.80;92.00;;;;;;4881603;29;19976;-82
2020/12/18 05:32:56;;;;;;;;;;;25.60;91.50;;;;;;4876279;29;19967;-81
2020/12/18 05:35:24;;;;;;;;;;;25.60;91.90;;;;;;4871789;29;19919;-82
2020/12/18 05:37:51;;;;;;;;;;;25.40;91.90;;;;;;4865922;29;19971;-81
2020/12/18 05:40:18;;;;;;;;;;;25.50;91.80;;;;;;4866426;29;19934;-80
2020/12/18 05:42:46;;;;;;;;;;;25.50;91.80;;;;;;4872702;29;19947;-81
2020/12/18 05:45:14;;;;;;;;;;;25.50;91.70;;;;;;4874275;29;20399;-81
2020/12/18 05:47:53;;;;;;;;;;;25.60;91.80;;;;;;4864921;29;19908;-87
2020/12/18 05:50:20;;;;;;;;;;;25.60;91.80;;;;;;4878606;29;20003;-81
2020/12/18 05:52:57;;;;;;;;;;;25.60;92.30;;;;;;4881023;29;19955;-82
2020/12/18 05:55:24;;;;;;;;;;;25.80;91.90;;;;;;4881181;29;19912;-80
2020/12/18 05:57:52;;;;;;;;;;;25.70;91.80;;;;;;4873069;29;19915;-83
2020/12/18 06:00:21;;;;;;;;;;;25.70;90.90;;;;;;4881355;29;19987;-81
2020/12/18 06:02:58;;;;;;;;;;;25.60;91.60;;;;;;4863451;29;19963;-82
2020/12/18 06:05:25;;;;;;;;;;;25.60;92.30;;;;;;4883494;29;19981;-82
2020/12/18 06:07:52;;;;;;;;;;;25.40;93.00;;;;;;4884193;29;19919;-83
2020/12/18 06:10:20;;;;;;;;;;;25.30;93.00;;;;;;4898134;29;19918;-81
2020/12/18 06:12:48;;;;;;;;;;;25.30;93.00;;;;;;4881319;29;19918;-82
2020/12/18 06:15:16;;;;;;;;;;;25.30;93.30;;;;;;4897141;29;20252;-85
2020/12/18 06:17:44;;;;;;;;;;;25.30;93.80;;;;;;4898482;29;20403;-83
2020/12/18 06:20:13;;;;;;;;;;;25.30;93.50;;;;;;4881811;29;20440;-81
2020/12/18 06:22:54;;;;;;;;;;;25.40;93.50;;;;;;4897686;29;19950;-84
2020/12/18 06:25:21;;;;;;;;;;;25.50;93.60;;;;;;4867029;29;19923;-85
2020/12/18 06:27:53;;;;;;;;;;;25.60;92.80;;;;;;4878250;29;19959;-84
2020/12/18 06:30:22;;;;;;;;;;;25.80;92.30;;;;;;4865613;29;19995;-82
2020/12/18 06:32:49;;;;;;;;;;;25.80;90.10;;;;;;4886256;29;19958;-82
2020/12/18 06:35:35;;;;;;;;;;;25.90;91.30;;;;;;4880068;29;19911;-80
2020/12/18 06:38:14;;;;;;;;;;;25.90;90.90;;;;;;4898831;29;19944;-80
2020/12/18 06:40:41;;;;;;;;;;;26.00;90.10;;;;;;4904636;29;19915;-85
2020/12/18 06:43:08;;;;;;;;;;;25.80;88.30;;;;;;4899312;29;20323;-80
2020/12/18 06:45:38;;;;;;;;;;;25.30;87.00;;;;;;4897352;29;20442;-81
2020/12/18 06:48:23;;;;;;;;;;;25.00;88.50;;;;;;4897285;29;19914;-85
2020/12/18 06:50:49;;;;;;;;;;;24.90;88.20;;;;;;4895319;29;20286;-82
2020/12/18 06:53:16;;;;;;;;;;;24.80;88.50;;;;;;4896409;29;19911;-82
2020/12/18 06:55:43;;;;;;;;;;;24.80;88.80;;;;;;4880353;29;20362;-83
2020/12/18 06:58:14;;;;;;;;;;;24.90;88.90;;;;;;4892277;29;19918;-82
2020/12/18 07:00:54;;;;;;;;;;;25.10;88.10;;;;;;4896418;29;19912;-82
2020/12/18 07:03:39;;;;;;;;;;;25.20;87.70;;;;;;4891872;29;19935;-83
2020/12/18 07:06:33;;;;;;;;;;;25.20;87.90;;;;;;4880127;29;19978;-83
2020/12/18 07:09:00;;;;;;;;;;;25.20;89.10;;;;;;4876525;29;20126;-84
2020/12/18 07:11:29;;;;;;;;;;;25.00;88.80;;;;;;4880887;29;20434;-82
2020/12/18 07:13:59;;;;;;;;;;;24.80;89.40;;;;;;4878068;29;20278;-82
2020/12/18 07:16:26;;;;;;;;;;;24.80;90.00;;;;;;4877362;29;19915;-82
2020/12/18 07:19:00;;;;;;;;;;;24.80;90.10;;;;;;4879580;29;19907;-82
2020/12/18 07:21:27;;;;;;;;;;;24.80;90.10;;;;;;4877845;29;19954;-83
2020/12/18 07:23:53;;;;;;;;;;;24.90;90.00;;;;;;4895599;29;19911;-83
2020/12/18 07:26:21;;;;;;;;;;;24.90;88.80;;;;;;4895106;29;19923;-83
2020/12/18 07:28:48;;;;;;;;;;;24.90;89.40;;;;;;4872619;29;20354;-82
2020/12/18 07:31:25;;;;;;;;;;;24.90;89.30;;;;;;4881299;29;20034;-82
2020/12/18 07:33:59;;;;;;;;;;;24.90;90.00;;;;;;4877803;29;20364;-83
2020/12/18 07:36:29;;;;;;;;;;;24.90;90.20;;;;;;4861455;29;19911;-81
2020/12/18 07:42:07;;;;;;;;;;;24.80;90.70;;;;;;4872320;29;19919;-83
2020/12/18 07:44:33;;;;;;;;;;;24.50;92.30;;;;;;4900996;29;19946;-84
2020/12/18 07:47:00;;;;;;;;;;;24.30;93.60;;;;;;4882236;29;19916;-83
2020/12/18 07:49:27;;;;;;;;;;;24.10;93.70;;;;;;4891463;29;19911;-83
2020/12/18 07:51:55;;;;;;;;;;;24.00;94.00;;;;;;4873806;29;20446;-83
2020/12/18 07:54:22;;;;;;;;;;;24.00;94.20;;;;;;4878531;29;19911;-84
2020/12/18 07:56:49;;;;;;;;;;;24.00;94.70;;;;;;4880514;29;19911;-84
2020/12/18 07:59:17;;;;;;;;;;;24.00;94.40;;;;;;4866301;29;19918;-83
2020/12/18 08:01:44;;;;;;;;;;;24.00;94.40;;;;;;4878628;29;19908;-83
2020/12/18 08:04:12;;;;;;;;;;;23.90;94.00;;;;;;4878298;29;19924;-85
2020/12/18 08:06:40;;;;;;;;;;;23.90;94.00;;;;;;4882053;29;20003;-80
2020/12/18 08:09:15;;;;;;;;;;;23.90;93.80;;;;;;4881000;29;19928;-82
2020/12/18 08:11:44;;;;;;;;;;;23.90;93.60;;;;;;4898294;29;19930;-85
2020/12/18 08:14:12;;;;;;;;;;;23.90;93.60;;;;;;4901791;29;19983;-86
2020/12/18 08:16:39;;;;;;;;;;;23.80;93.50;;;;;;4900225;29;19995;-85
2020/12/18 08:19:10;;;;;;;;;;;23.80;93.60;;;;;;4865558;29;19914;-82
2020/12/18 08:21:37;;;;;;;;;;;23.70;93.70;;;;;;4864809;29;19911;-83
2020/12/18 08:24:12;;;;;;;;;;;23.80;93.60;;;;;;4865644;29;19930;-83
2020/12/18 08:26:41;;;;;;;;;;;23.80;94.00;;;;;;4866232;29;19927;-82
2020/12/18 08:29:09;;;;;;;;;;;23.80;93.90;;;;;;4880988;29;20320;-82
2020/12/18 08:31:59;;;;;;;;;;;23.70;94.30;;;;;;4880863;29;19916;-83
2020/12/18 08:34:27;;;;;;;;;;;23.60;94.60;;;;;;4879357;29;19911;-85
2020/12/18 08:36:54;;;;;;;;;;;23.60;94.90;;;;;;4880797;29;20043;-83
2020/12/18 08:39:20;;;;;;;;;;;23.50;95.00;;;;;;4878903;29;19923;-83
2020/12/18 08:41:48;;;;;;;;;;;23.40;95.20;;;;;;4877635;29;20267;-83
2020/12/18 08:44:16;;;;;;;;;;;23.50;95.00;;;;;;4878236;29;19957;-83
2020/12/18 08:46:44;;;;;;;;;;;23.40;95.10;;;;;;4877991;29;20394;-83
2020/12/18 08:49:15;;;;;;;;;;;23.30;95.10;;;;;;4877530;29;19912;-82
2020/12/18 08:51:42;;;;;;;;;;;23.30;95.20;;;;;;4879855;29;19963;-83
2020/12/18 08:54:21;;;;;;;;;;;23.30;95.30;;;;;;4862886;29;19912;-85
2020/12/18 08:56:48;;;;;;;;;;;23.30;95.40;;;;;;4878957;29;19919;-81
2020/12/18 08:59:17;;;;;;;;;;;23.20;95.50;;;;;;4882842;29;20002;-83
2020/12/18 09:01:50;;;;;;;;;;;23.10;95.70;;;;;;4882801;29;19908;-82
2020/12/18 09:04:17;;;;;;;;;;;23.10;95.90;;;;;;4884266;29;19919;-82
2020/12/18 09:06:53;;;;;;;;;;;23.00;95.80;;;;;;4884378;29;19923;-83
2020/12/18 09:09:27;;;;;;;;;;;22.90;95.70;;;;;;4889587;29;20398;-88
2020/12/18 09:11:54;;;;;;;;;;;22.80;95.90;;;;;;4886932;29;19916;-81
2020/12/18 09:14:27;;;;;;;;;;;22.90;95.90;;;;;;4884840;29;20399;-83
2020/12/18 09:16:58;;;;;;;;;;;22.80;95.70;;;;;;4884895;29;20270;-83
2020/12/18 09:19:33;;;;;;;;;;;22.80;95.80;;;;;;4887818;29;19975;-85
2020/12/18 09:22:03;;;;;;;;;;;22.70;95.90;;;;;;4887080;29;19907;-82
2020/12/18 09:24:30;;;;;;;;;;;22.60;95.80;;;;;;4885194;29;19979;-84
2020/12/18 09:27:10;;;;;;;;;;;22.50;95.80;;;;;;4883669;29;20002;-82
2020/12/18 09:29:40;;;;;;;;;;;22.50;95.90;;;;;;4883772;29;19935;-83
2020/12/18 09:32:07;;;;;;;;;;;22.40;95.90;;;;;;4884672;29;20343;-81
2020/12/18 09:34:34;;;;;;;;;;;22.40;95.90;;;;;;4900879;29;20370;-82
2020/12/18 09:37:15;;;;;;;;;;;22.40;95.80;;;;;;4884240;29;19916;-82
2020/12/18 09:39:42;;;;;;;;;;;22.40;95.80;;;;;;4883553;29;19907;-84
2020/12/18 09:42:08;;;;;;;;;;;22.40;95.60;;;;;;4884225;29;19907;-83
2020/12/18 09:44:35;;;;;;;;;;;22.40;95.60;;;;;;4883722;29;19930;-84
2020/12/18 09:47:02;;;;;;;;;;;22.40;95.40;;;;;;4884031;29;20282;-84
2020/12/18 09:49:29;;;;;;;;;;;22.30;95.50;;;;;;4883793;29;20236;-84
2020/12/18 09:51:55;;;;;;;;;;;22.40;95.60;;;;;;4883340;29;19917;-83
2020/12/18 09:54:22;;;;;;;;;;;22.40;95.50;;;;;;4883948;29;20330;-83
2020/12/18 09:56:52;;;;;;;;;;;22.40;95.50;;;;;;4883645;29;20358;-85
2020/12/18 09:59:19;;;;;;;;;;;22.40;95.40;;;;;;4900076;29;20367;-84
2020/12/18 10:01:51;;;;;;;;;;;22.50;95.30;;;;;;4900748;29;20355;-85
2020/12/18 10:04:17;;;;;;;;;;;22.50;95.20;;;;;;4872812;29;19924;-84
2020/12/18 10:06:44;;;;;;;;;;;22.60;95.30;;;;;;4864330;29;19916;-83
2020/12/18 10:09:11;;;;;;;;;;;22.50;95.30;;;;;;4863199;29;19912;-84
2020/12/18 10:11:38;;;;;;;;;;;22.50;95.30;;;;;;4869029;29;19908;-84
2020/12/18 10:14:04;;;;;;;;;;;22.50;95.60;;;;;;4863624;29;20006;-81
2020/12/18 10:16:31;;;;;;;;;;;22.40;95.40;;;;;;4861734;29;19911;-80
2020/12/18 10:18:58;;;;;;;;;;;22.50;95.40;;;;;;4860473;29;19908;-81
2020/12/18 10:21:24;;;;;;;;;;;22.50;95.30;;;;;;4888395;29;19911;-80
2020/12/18 10:23:51;;;;;;;;;;;22.50;95.20;;;;;;4883115;29;19959;-80
2020/12/18 10:26:19;;;;;;;;;;;22.40;95.10;;;;;;4899837;29;20351;-85
2020/12/18 10:28:45;;;;;;;;;;;22.30;95.30;;;;;;4882199;29;19912;-81
2020/12/18 10:31:14;;;;;;;;;;;22.30;95.20;;;;;;4899729;29;19907;-81
2020/12/18 10:33:40;;;;;;;;;;;22.40;95.20;;;;;;4899991;29;20639;-80
2020/12/18 10:36:07;;;;;;;;;;;22.40;95.00;;;;;;4883215;29;19912;-83
2020/12/18 10:38:34;;;;;;;;;;;22.40;94.90;;;;;;4899569;29;19911;-82
2020/12/18 10:41:01;;;;;;;;;;;22.40;94.90;;;;;;4899412;29;19926;-82
2020/12/18 10:43:27;;;;;;;;;;;22.50;94.60;;;;;;4883138;29;19912;-80
2020/12/18 10:45:54;;;;;;;;;;;22.40;94.50;;;;;;4899625;29;19919;-82
2020/12/18 10:48:21;;;;;;;;;;;22.40;94.60;;;;;;4900233;29;19908;-81
2020/12/18 10:50:48;;;;;;;;;;;22.30;94.60;;;;;;4899252;29;20021;-81
2020/12/18 10:53:14;;;;;;;;;;;22.40;94.60;;;;;;4900109;29;19911;-82
2020/12/18 10:55:41;;;;;;;;;;;22.40;94.60;;;;;;4899347;29;20286;-82
2020/12/18 10:58:08;;;;;;;;;;;22.30;94.60;;;;;;4886011;29;20300;-84
2020/12/18 11:00:34;;;;;;;;;;;22.20;94.50;;;;;;4876485;29;19935;-83
2020/12/18 11:03:01;;;;;;;;;;;22.20;94.60;;;;;;4880969;29;19972;-83
2020/12/18 11:05:28;;;;;;;;;;;22.20;94.50;;;;;;4882677;29;19916;-85
2020/12/18 11:07:55;;;;;;;;;;;22.30;94.40;;;;;;4898732;29;19934;-83
2020/12/18 11:10:21;;;;;;;;;;;22.30;94.30;;;;;;4898939;29;19918;-82
2020/12/18 11:12:48;;;;;;;;;;;22.30;94.30;;;;;;4900333;29;19908;-84
2020/12/18 11:15:15;;;;;;;;;;;22.20;94.30;;;;;;4900013;29;20274;-83
2020/12/18 11:17:42;;;;;;;;;;;22.20;94.40;;;;;;4896360;29;19997;-84
2020/12/18 11:20:08;;;;;;;;;;;22.20;94.30;;;;;;4892491;29;20002;-83
2020/12/18 11:22:35;;;;;;;;;;;22.30;94.30;;;;;;4899925;29;19967;-84
2020/12/18 11:25:04;;;;;;;;;;;22.30;94.20;;;;;;4894432;29;19931;-83
2020/12/18 11:27:31;;;;;;;;;;;22.30;94.10;;;;;;4899312;29;19939;-84
2020/12/18 11:29:58;;;;;;;;;;;22.30;94.10;;;;;;4898474;29;20282;-84
2020/12/18 11:32:25;;;;;;;;;;;22.30;94.10;;;;;;4886627;29;19929;-84
2020/12/18 11:34:51;;;;;;;;;;;22.30;94.00;;;;;;4881788;29;19907;-82
2020/12/18 11:37:18;;;;;;;;;;;22.30;94.00;;;;;;4869060;29;19911;-81
2020/12/18 11:39:45;;;;;;;;;;;22.30;93.90;;;;;;4891473;29;19918;-82
2020/12/18 11:42:11;;;;;;;;;;;22.20;93.80;;;;;;4898250;29;19911;-80
2020/12/18 11:44:38;;;;;;;;;;;22.30;93.80;;;;;;4896552;29;19915;-82
2020/12/18 11:47:05;;;;;;;;;;;22.30;93.90;;;;;;4897260;29;19919;-80
2020/12/18 11:49:31;;;;;;;;;;;22.30;93.90;;;;;;4897188;29;19915;-82
2020/12/18 11:51:58;;;;;;;;;;;22.30;93.80;;;;;;4898784;29;19911;-83
2020/12/18 11:54:25;;;;;;;;;;;22.20;93.70;;;;;;4898564;29;19907;-81
2020/12/18 11:56:52;;;;;;;;;;;22.20;94.00;;;;;;4897857;29;20031;-81
2020/12/18 11:59:18;;;;;;;;;;;22.10;94.00;;;;;;4888858;29;19935;-82
2020/12/18 12:01:45;;;;;;;;;;;22.10;93.90;;;;;;4888460;29;19907;-82
2020/12/18 12:04:11;;;;;;;;;;;22.10;94.00;;;;;;4895062;29;19990;-81
2020/12/18 12:06:38;;;;;;;;;;;22.20;93.90;;;;;;4895061;29;19931;-80
2020/12/18 12:09:05;;;;;;;;;;;22.10;93.70;;;;;;4888733;29;19918;-80
2020/12/18 12:11:39;;;;;;;;;;;22.10;93.90;;;;;;4897903;29;20307;-81
2020/12/18 12:14:06;;;;;;;;;;;22.10;93.80;;;;;;4895266;29;20446;-80
2020/12/18 12:16:36;;;;;;;;;;;22.10;93.90;;;;;;4879135;29;19911;-81
2020/12/18 12:19:03;;;;;;;;;;;22.00;93.70;;;;;;4880248;29;19922;-82
2020/12/18 12:21:36;;;;;;;;;;;22.10;93.80;;;;;;4898307;29;19930;-81
2020/12/18 12:24:03;;;;;;;;;;;22.00;93.80;;;;;;4881959;29;20276;-81
2020/12/18 12:26:30;;;;;;;;;;;21.90;93.80;;;;;;4878782;29;20378;-82
2020/12/18 12:28:57;;;;;;;;;;;21.90;93.70;;;;;;4878160;29;19970;-82
2020/12/18 12:31:24;;;;;;;;;;;21.80;93.80;;;;;;4864486;29;19912;-80
2020/12/18 12:33:51;;;;;;;;;;;21.80;93.80;;;;;;4869485;29;19916;-82
2020/12/18 12:36:22;;;;;;;;;;;21.80;93.90;;;;;;4896574;29;19911;-82
2020/12/18 12:38:48;;;;;;;;;;;21.80;94.00;;;;;;4886303;29;19911;-84
2020/12/18 12:41:16;;;;;;;;;;;21.70;94.00;;;;;;4887085;29;20006;-81
2020/12/18 12:43:43;;;;;;;;;;;21.60;94.10;;;;;;4902544;29;19944;-81
2020/12/18 12:46:10;;;;;;;;;;;21.60;94.80;;;;;;4884494;29;19919;-81
2020/12/18 12:48:37;;;;;;;;;;;21.50;94.90;;;;;;4869272;29;19912;-82
2020/12/18 12:51:04;;;;;;;;;;;21.30;94.90;;;;;;4885023;29;19911;-82
2020/12/18 13:04:15;;;;;;;;;;;21.10;94.60;;;;;;5130634;27;19915;-79
2020/12/18 13:06:42;;;;;;;;;;;20.90;95.20;;;;;;5129447;27;20262;-79
2020/12/18 13:09:09;;;;;;;;;;;20.90;95.00;;;;;;5128714;27;19955;-80
2020/12/18 13:11:39;;;;;;;;;;;20.90;94.80;;;;;;5129240;27;20006;-80
2020/12/18 13:14:06;;;;;;;;;;;20.80;95.00;;;;;;5130530;27;19919;-81
2020/12/18 13:16:33;;;;;;;;;;;20.80;95.00;;;;;;5130222;27;19912;-80
2020/12/18 13:19:02;;;;;;;;;;;20.80;95.00;;;;;;5130023;27;19937;-80
2020/12/18 13:21:33;;;;;;;;;;;20.80;95.10;;;;;;5129817;27;19914;-81
2020/12/18 13:24:00;;;;;;;;;;;20.90;94.90;;;;;;5126825;28;20385;-81
2020/12/18 13:26:27;;;;;;;;;;;20.90;95.20;;;;;;5130221;27;20389;-81
2020/12/18 13:28:54;;;;;;;;;;;20.90;95.40;;;;;;5130075;27;19939;-81
2020/12/18 13:31:21;;;;;;;;;;;20.80;95.40;;;;;;5130314;27;19915;-82
2020/12/18 13:33:49;;;;;;;;;;;20.70;95.70;;;;;;5130901;27;19912;-81
2020/12/18 13:36:16;;;;;;;;;;;20.70;96.00;;;;;;5130385;27;19915;-80
2020/12/18 13:38:42;;;;;;;;;;;20.60;96.20;;;;;;5129285;27;19911;-80
2020/12/18 13:41:09;;;;;;;;;;;20.50;96.50;;;;;;5129646;27;19953;-81
2020/12/18 13:43:36;;;;;;;;;;;20.30;96.50;;;;;;5130426;27;19908;-80
2020/12/18 13:46:02;;;;;;;;;;;20.30;96.60;;;;;;5129909;27;19920;-81
2020/12/18 13:48:29;;;;;;;;;;;20.20;95.90;;;;;;5129194;27;19912;-81
2020/12/18 13:50:56;;;;;;;;;;;20.20;96.00;;;;;;5130167;27;19908;-82
2020/12/18 13:53:22;;;;;;;;;;;20.10;95.80;;;;;;5129443;27;20361;-80
2020/12/18 13:55:50;;;;;;;;;;;20.10;95.60;;;;;;5129945;27;19953;-81
2020/12/18 13:58:17;;;;;;;;;;;20.10;95.60;;;;;;5130099;27;19908;-81
2020/12/18 14:00:44;;;;;;;;;;;20.20;95.20;;;;;;5129616;27;19907;-80
2020/12/18 14:03:11;;;;;;;;;;;20.20;95.10;;;;;;5127020;27;20010;-81
2020/12/18 14:05:38;;;;;;;;;;;20.20;94.90;;;;;;5116304;28;19911;-81
2020/12/18 14:08:05;;;;;;;;;;;20.30;94.70;;;;;;5116069;28;19957;-81
2020/12/18 14:10:33;;;;;;;;;;;20.30;94.70;;;;;;5115580;28;19915;-79
2020/12/18 14:13:00;;;;;;;;;;;20.30;94.60;;;;;;5115647;28;19927;-80
2020/12/18 14:15:27;;;;;;;;;;;20.20;94.80;;;;;;5116179;28;19907;-80
2020/12/18 14:17:53;;;;;;;;;;;20.20;94.90;;;;;;5115951;28;19912;-80
2020/12/18 14:20:20;;;;;;;;;;;20.20;94.90;;;;;;5115598;27;19912;-80
2020/12/18 14:22:48;;;;;;;;;;;20.30;94.80;;;;;;5115356;28;19990;-81
2020/12/18 14:25:15;;;;;;;;;;;20.40;94.50;;;;;;5115871;28;19914;-81
2020/12/18 14:27:41;;;;;;;;;;;20.30;94.30;;;;;;5115929;28;19908;-80
2020/12/18 14:30:08;;;;;;;;;;;20.30;94.00;;;;;;5115369;28;19908;-80
2020/12/18 14:32:35;;;;;;;;;;;20.30;94.10;;;;;;5115162;28;20026;-80
2020/12/18 14:35:03;;;;;;;;;;;20.30;94.10;;;;;;5115462;28;20095;-81